createdAt,value
2022-09-05T00:00:04.107Z,18.78
2022-09-05T00:02:48.776Z,18.66
2022-09-05T00:05:36.403Z,18.61
2022-09-05T00:08:16.425Z,18.54
2022-09-05T00:11:40.626Z,18.47
2022-09-05T00:13:40.019Z,18.69
2022-09-05T00:16:32.218Z,18.41
2022-09-05T00:24:22.491Z,18.48
2022-09-05T00:24:29.055Z,18.23
2022-09-05T00:25:38.543Z,18.13
2022-09-05T00:28:25.837Z,18.24
2022-09-05T00:31:55.646Z,18.11
2022-09-05T00:34:22.260Z,18.02
2022-09-05T00:36:53.671Z,18.22
2022-09-05T00:39:24.021Z,18.12
2022-09-05T00:41:53.419Z,18.05
2022-09-05T00:44:24.537Z,18.25
2022-09-05T00:46:57.979Z,18.11
2022-09-05T00:49:30.191Z,18.06
2022-09-05T00:52:02.050Z,18.12
2022-09-05T00:54:57.042Z,17.92
2022-09-05T00:57:40.323Z,18.06
2022-09-05T01:00:17.596Z,18.37
2022-09-05T01:03:26.636Z,18.18
2022-09-05T01:06:17.571Z,17.90
2022-09-05T01:09:09.255Z,17.86
2022-09-05T01:11:54.061Z,18.14
2022-09-05T01:14:32.102Z,18.21
2022-09-05T01:17:09.871Z,18.22
2022-09-05T01:19:52.188Z,18.17
2022-09-05T01:22:40.058Z,17.81
2022-09-05T01:25:16.456Z,17.84
2022-09-05T01:29:16.717Z,17.95
2022-09-05T01:30:42.980Z,18.00
2022-09-05T01:33:20.920Z,18.17
2022-09-05T01:36:22.654Z,18.07
2022-09-05T01:39:45.524Z,17.83
2022-09-05T01:41:53.290Z,17.69
2022-09-05T01:44:31.798Z,17.80
2022-09-05T01:47:10.543Z,17.86
2022-09-05T01:49:47.390Z,17.78
2022-09-05T01:52:26.023Z,17.67
2022-09-05T01:55:07.544Z,17.70
2022-09-05T01:57:41.348Z,17.67
2022-09-05T02:00:13.410Z,17.53
2022-09-05T02:02:53.122Z,17.53
2022-09-05T02:05:48.942Z,17.66
2022-09-05T02:08:47.899Z,17.55
2022-09-05T02:11:36.166Z,17.56
2022-09-05T02:14:09.449Z,17.15
2022-09-05T02:16:44.720Z,17.08
2022-09-05T02:19:18.005Z,17.13
2022-09-05T02:21:55.674Z,17.14
2022-09-05T02:24:28.313Z,17.08
2022-09-05T02:27:07.426Z,16.92
2022-09-05T02:29:42.870Z,17.13
2022-09-05T02:32:14.826Z,17.21
2022-09-05T02:34:53.713Z,17.20
2022-09-05T02:38:31.701Z,16.73
2022-09-05T02:45:01.505Z,16.79
2022-09-05T02:45:20.115Z,16.86
2022-09-05T02:46:05.651Z,16.73
2022-09-05T02:48:48.549Z,16.88
2022-09-05T02:57:26.459Z,16.68
2022-09-05T02:57:27.378Z,16.60
2022-09-05T02:57:40.449Z,16.54
2022-09-05T03:00:07.724Z,16.34
2022-09-05T03:02:43.921Z,16.71
2022-09-05T03:05:19.003Z,16.65
2022-09-05T03:08:08.717Z,16.48
2022-09-05T03:11:05.318Z,16.38
2022-09-05T03:14:12.406Z,16.48
2022-09-05T03:17:25.634Z,16.55
2022-09-05T03:20:16.718Z,16.31
2022-09-05T03:23:09.575Z,16.26
2022-09-05T03:26:05.179Z,16.48
2022-09-05T03:29:17.722Z,16.44
2022-09-05T03:32:17.738Z,16.22
2022-09-05T03:34:56.807Z,16.23
2022-09-05T03:37:49.116Z,16.19
2022-09-05T03:40:37.250Z,16.33
2022-09-05T03:43:25.843Z,16.21
2022-09-05T03:46:03.918Z,16.14
2022-09-05T03:52:13.126Z,16.17
2022-09-05T03:57:11.960Z,16.24
2022-09-05T03:57:13.047Z,16.29
2022-09-05T03:58:55.322Z,16.02
2022-09-05T04:02:37.359Z,16.30
2022-09-05T04:08:17.039Z,16.16
2022-09-05T04:08:20.442Z,16.28
2022-09-05T04:09:53.231Z,16.02
2022-09-05T04:12:25.228Z,16.07
2022-09-05T04:14:56.422Z,15.92
2022-09-05T04:17:31.134Z,15.84
2022-09-05T04:20:02.709Z,15.92
2022-09-05T04:22:39.628Z,15.92
2022-09-05T04:25:13.431Z,15.90
2022-09-05T04:27:50.250Z,15.71
2022-09-05T04:30:38.150Z,16.02
2022-09-05T04:33:16.255Z,15.99
2022-09-05T04:35:53.866Z,15.98
2022-09-05T04:38:37.878Z,15.91
2022-09-05T04:41:09.661Z,15.91
2022-09-05T04:43:41.653Z,15.77
2022-09-05T04:46:18.839Z,15.76
2022-09-05T04:48:52.306Z,15.87
2022-09-05T04:51:44.161Z,15.85
2022-09-05T04:54:27.630Z,15.84
2022-09-05T04:57:13.624Z,16.04
2022-09-05T05:02:38.109Z,15.94
2022-09-05T05:06:11.231Z,15.92
2022-09-05T05:06:13.497Z,15.95
2022-09-05T05:08:31.716Z,15.84
2022-09-05T05:17:55.226Z,15.90
2022-09-05T05:17:58.767Z,15.90
2022-09-05T05:18:08.797Z,16.09
2022-09-05T05:19:57.894Z,16.10
2022-09-05T05:22:34.111Z,16.06
2022-09-05T05:25:01.952Z,16.26
2022-09-05T05:27:35.431Z,16.11
2022-09-05T05:30:05.429Z,16.08
2022-09-05T05:32:45.691Z,16.51
2022-09-05T05:35:16.057Z,16.56
2022-09-05T05:37:46.639Z,16.49
2022-09-05T05:40:21.245Z,16.58
2022-09-05T05:42:49.017Z,16.57
2022-09-05T05:45:18.519Z,16.84
2022-09-05T05:47:50.468Z,17.03
2022-09-05T05:50:33.116Z,17.17
2022-09-05T05:53:28.994Z,17.24
2022-09-05T05:56:29.099Z,17.33
2022-09-05T05:59:06.498Z,17.28
2022-09-05T06:02:02.201Z,17.36
2022-09-05T06:04:49.259Z,17.61
2022-09-05T06:07:23.822Z,17.44
2022-09-05T06:14:52.690Z,17.75
2022-09-05T06:15:00.312Z,17.94
2022-09-05T06:16:41.247Z,18.01
2022-09-05T06:19:46.994Z,17.96
2022-09-05T06:22:44.082Z,17.93
2022-09-05T06:25:47.111Z,18.21
2022-09-05T06:28:22.134Z,18.82
2022-09-05T06:31:29.252Z,18.74
2022-09-05T06:33:53.111Z,18.44
2022-09-05T06:36:43.846Z,18.27
2022-09-05T06:39:17.540Z,18.32
2022-09-05T06:41:58.140Z,18.40
2022-09-05T06:44:42.439Z,18.16
2022-09-05T06:47:23.032Z,18.50
2022-09-05T06:50:24.107Z,18.84
2022-09-05T06:53:35.318Z,18.88
2022-09-05T06:56:12.719Z,18.87
2022-09-05T06:59:34.275Z,18.98
2022-09-05T07:02:08.499Z,19.33
2022-09-05T07:05:23.702Z,19.40
2022-09-05T07:07:35.723Z,19.48
2022-09-05T07:10:34.635Z,19.57
2022-09-05T07:13:00.440Z,19.44
2022-09-05T07:15:37.030Z,19.47
2022-09-05T07:18:13.536Z,19.37
2022-09-05T07:21:16.471Z,19.53
2022-09-05T07:24:09.021Z,19.97
2022-09-05T07:26:53.601Z,20.04
2022-09-05T07:29:29.552Z,20.24
2022-09-05T07:31:58.330Z,20.32
2022-09-05T07:34:28.379Z,20.41
2022-09-05T07:37:14.646Z,20.58
2022-09-05T07:39:46.482Z,20.79
2022-09-05T07:42:17.780Z,21.09
2022-09-05T07:44:50.153Z,21.35
2022-09-05T07:47:22.139Z,21.43
2022-09-05T07:50:13.937Z,21.38
2022-09-05T07:56:53.303Z,21.59
2022-09-05T07:56:59.518Z,21.76
2022-09-05T07:58:21.304Z,22.04
2022-09-05T08:00:54.505Z,22.11
2022-09-05T08:03:26.582Z,22.14
2022-09-05T08:05:55.413Z,22.47
2022-09-05T08:08:25.580Z,22.43
2022-09-05T08:11:24.317Z,22.43
2022-09-05T08:13:53.403Z,22.71
2022-09-05T08:16:34.795Z,22.93
2022-09-05T08:19:12.483Z,23.06
2022-09-05T08:21:43.851Z,22.99
2022-09-05T08:24:14.447Z,23.03
2022-09-05T08:26:47.051Z,23.11
2022-09-05T08:29:26.742Z,23.20
2022-09-05T08:31:58.034Z,23.20
2022-09-05T08:34:44.903Z,23.12
2022-09-05T08:37:15.167Z,23.45
2022-09-05T08:39:50.490Z,23.77
2022-09-05T08:42:49.349Z,23.87
2022-09-05T08:46:44.897Z,23.58
2022-09-05T08:48:39.878Z,23.99
2022-09-05T08:51:25.772Z,24.04
2022-09-05T08:54:08.827Z,24.03
2022-09-05T08:56:41.013Z,24.28
2022-09-05T08:59:31.667Z,24.32
2022-09-05T09:02:47.356Z,24.26
2022-09-05T09:05:14.185Z,24.47
2022-09-05T09:07:51.297Z,24.55
2022-09-05T09:10:40.351Z,24.75
2022-09-05T09:13:20.102Z,25.04
2022-09-05T09:15:53.028Z,24.91
2022-09-05T09:18:21.319Z,25.11
2022-09-05T09:20:53.803Z,25.50
2022-09-05T09:23:41.672Z,25.11
2022-09-05T09:26:15.748Z,25.29
2022-09-05T09:28:51.719Z,25.12
2022-09-05T09:31:37.100Z,25.35
2022-09-05T09:34:18.238Z,25.41
2022-09-05T09:37:15.248Z,25.61
2022-09-05T09:40:02.499Z,25.57
2022-09-05T09:42:34.315Z,25.59
2022-09-05T09:45:29.043Z,25.88
2022-09-05T09:48:34.743Z,26.06
2022-09-05T09:51:15.016Z,26.01
2022-09-05T09:53:53.090Z,26.06
2022-09-05T09:56:55.778Z,25.99
2022-09-05T09:59:30.925Z,26.05
2022-09-05T10:03:37.675Z,26.13
2022-09-05T10:10:35.371Z,26.13
2022-09-05T10:10:55.201Z,26.09
2022-09-05T10:14:49.519Z,26.58
2022-09-05T10:17:33.640Z,26.73
2022-09-05T10:20:29.495Z,26.67
2022-09-05T10:23:11.076Z,26.68
2022-09-05T10:25:58.249Z,26.90
2022-09-05T10:28:38.616Z,27.01
2022-09-05T10:33:05.262Z,27.27
2022-09-05T10:35:17.910Z,27.55
2022-09-05T10:37:02.625Z,27.25
2022-09-05T10:39:31.454Z,27.43
2022-09-05T10:42:03.612Z,27.23
2022-09-05T10:44:38.829Z,27.34
2022-09-05T10:47:16.688Z,27.42
2022-09-05T10:49:45.532Z,27.53
2022-09-05T10:52:18.115Z,27.51
2022-09-05T10:55:15.209Z,27.59
2022-09-05T10:57:54.285Z,27.58
2022-09-05T11:02:20.101Z,27.67
2022-09-05T11:03:50.180Z,27.72
2022-09-05T11:06:25.141Z,27.87
2022-09-05T11:09:00.653Z,27.55
2022-09-05T11:11:34.695Z,27.53
2022-09-05T11:14:07.196Z,28.08
2022-09-05T11:16:50.666Z,28.14
2022-09-05T11:19:20.115Z,28.54
2022-09-05T11:22:10.308Z,28.59
2022-09-05T11:24:49.508Z,28.15
2022-09-05T11:27:27.004Z,28.37
2022-09-05T11:29:57.367Z,28.95
2022-09-05T11:39:38.118Z,28.68
2022-09-05T11:39:51.484Z,29.08
2022-09-05T11:39:53.052Z,28.90
2022-09-05T11:42:10.027Z,29.42
2022-09-05T11:44:44.944Z,28.85
2022-09-05T11:48:00.900Z,28.54
2022-09-05T11:50:47.924Z,28.46
2022-09-05T11:53:44.643Z,28.50
2022-09-05T11:56:45.488Z,28.52
2022-09-05T11:59:45.005Z,28.51
2022-09-05T12:02:43.603Z,28.52
2022-09-05T12:08:26.227Z,29.07
2022-09-05T12:11:05.371Z,28.77
2022-09-05T12:13:42.450Z,29.13
2022-09-05T12:19:22.978Z,28.85
2022-09-05T12:22:24.010Z,28.76
2022-09-05T12:25:27.525Z,28.37
2022-09-05T12:29:09.759Z,27.99
2022-09-05T12:31:07.280Z,28.20
2022-09-05T12:36:05.165Z,28.19
2022-09-05T12:40:56.856Z,28.86
2022-09-05T12:41:37.137Z,29.14
2022-09-05T12:41:41.218Z,29.04
2022-09-05T12:42:08.440Z,28.49
2022-09-05T12:42:28.170Z,28.88
2022-09-05T12:45:10.253Z,29.17
2022-09-05T12:47:55.446Z,29.61
2022-09-05T12:50:33.406Z,29.16
2022-09-05T12:53:06.747Z,28.80
2022-09-05T12:55:37.367Z,28.63
2022-09-05T13:02:58.813Z,28.78
2022-09-05T13:03:01.347Z,28.87
2022-09-05T13:04:20.106Z,29.30
2022-09-05T13:06:54.823Z,29.53
2022-09-05T13:09:30.789Z,29.40
2022-09-05T13:14:56.092Z,28.98
2022-09-05T13:15:20.120Z,29.30
2022-09-05T13:17:54.219Z,29.18
2022-09-05T13:20:34.098Z,29.48
2022-09-05T13:23:05.495Z,30.15
2022-09-05T13:25:36.091Z,30.22
2022-09-05T13:28:06.303Z,30.31
2022-09-05T13:35:42.204Z,30.27
2022-09-05T13:38:19.616Z,29.80
2022-09-05T13:38:30.571Z,30.21
2022-09-05T13:39:11.100Z,29.87
2022-09-05T13:41:45.088Z,30.09
2022-09-05T13:44:26.495Z,30.13
2022-09-05T13:47:02.067Z,30.20
2022-09-05T13:49:40.383Z,30.07
2022-09-05T13:52:20.699Z,29.98
2022-09-05T13:54:51.723Z,30.15
2022-09-05T13:57:37.869Z,30.21
2022-09-05T14:00:44.979Z,30.06
2022-09-05T14:03:43.910Z,29.19
2022-09-05T14:06:45.592Z,29.40
2022-09-05T14:09:40.103Z,29.73
2022-09-05T14:12:12.564Z,29.58
2022-09-05T14:17:51.894Z,28.81
2022-09-05T14:20:43.027Z,28.65
2022-09-05T14:23:13.396Z,28.63
2022-09-05T14:25:44.163Z,28.64
2022-09-05T14:28:14.119Z,28.69
2022-09-05T14:33:21.172Z,28.86
2022-09-05T14:37:40.123Z,29.12
2022-09-05T14:38:07.914Z,29.72
2022-09-05T14:41:16.866Z,29.85
2022-09-05T14:44:17.423Z,29.79
2022-09-05T14:47:02.625Z,30.25
2022-09-05T14:50:04.151Z,30.15
2022-09-05T14:52:35.513Z,30.34
2022-09-05T15:02:49.947Z,30.52
2022-09-05T15:02:56.426Z,30.54
2022-09-05T15:06:32.995Z,31.18
2022-09-05T15:12:14.425Z,30.66
2022-09-05T15:12:25.815Z,30.20
2022-09-05T15:14:42.093Z,29.92
2022-09-05T15:17:09.758Z,30.21
2022-09-05T15:20:06.689Z,30.13
2022-09-05T15:22:37.311Z,29.99
2022-09-05T15:25:17.888Z,29.96
2022-09-05T15:27:48.108Z,30.37
2022-09-05T15:30:21.450Z,30.33
2022-09-05T15:32:50.777Z,29.94
2022-09-05T15:35:42.959Z,30.23
2022-09-05T15:38:56.289Z,30.29
2022-09-05T15:41:35.646Z,30.42
2022-09-05T15:44:28.389Z,30.29
2022-09-05T15:47:02.085Z,29.81
2022-09-05T15:49:38.450Z,30.34
2022-09-05T15:52:12.693Z,30.00
2022-09-05T15:54:51.207Z,30.04
2022-09-05T15:57:25.480Z,29.89
2022-09-05T16:00:04.690Z,30.11
2022-09-05T16:02:39.021Z,29.95
2022-09-05T16:10:26.668Z,30.20
2022-09-05T16:10:36.595Z,30.05
2022-09-05T16:12:17.118Z,29.79
2022-09-05T16:16:40.419Z,29.35
2022-09-05T16:23:14.637Z,29.14
2022-09-05T16:23:32.670Z,29.14
2022-09-05T16:23:59.316Z,28.72
2022-09-05T16:26:44.129Z,28.60
2022-09-05T16:29:25.923Z,28.48
2022-09-05T16:32:37.447Z,28.45
2022-09-05T16:35:26.341Z,28.19
2022-09-05T16:38:01.593Z,28.10
2022-09-05T16:40:41.276Z,27.99
2022-09-05T16:43:19.102Z,27.98
2022-09-05T16:45:51.134Z,27.84
2022-09-05T16:48:37.804Z,27.89
2022-09-05T16:51:15.756Z,27.88
2022-09-05T16:53:50.814Z,27.79
2022-09-05T16:56:29.965Z,27.77
2022-09-05T16:58:59.751Z,27.73
2022-09-05T17:01:54.738Z,27.96
2022-09-05T17:05:03.113Z,27.72
2022-09-05T17:07:42.579Z,27.70
2022-09-05T17:10:12.255Z,27.53
2022-09-05T17:12:40.451Z,27.63
2022-09-05T17:15:11.500Z,27.60
2022-09-05T17:18:19.152Z,27.59
2022-09-05T17:20:48.265Z,27.61
2022-09-05T17:26:36.979Z,27.60
2022-09-05T17:29:31.062Z,27.66
2022-09-05T17:29:36.091Z,27.46
2022-09-05T17:31:58.430Z,27.45
2022-09-05T17:34:50.285Z,27.34
2022-09-05T17:37:34.260Z,27.12
2022-09-05T17:40:41.824Z,26.58
2022-09-05T17:43:28.411Z,26.33
2022-09-05T17:46:09.473Z,26.19
2022-09-05T17:49:18.469Z,26.30
2022-09-05T17:52:23.867Z,26.30
2022-09-05T17:54:53.636Z,26.03
2022-09-05T17:57:45.076Z,25.60
2022-09-05T18:00:49.358Z,25.62
2022-09-05T18:04:08.379Z,25.48
2022-09-05T18:06:54.063Z,25.34
2022-09-05T18:09:59.047Z,25.20
2022-09-05T18:13:13.802Z,24.80
2022-09-05T18:16:04.632Z,24.90
2022-09-05T18:19:28.051Z,24.78
2022-09-05T18:21:25.587Z,24.74
2022-09-05T18:24:00.555Z,24.65
2022-09-05T18:26:29.330Z,24.71
2022-09-05T18:29:05.973Z,24.53
2022-09-05T18:31:59.162Z,24.50
2022-09-05T18:34:44.871Z,24.30
2022-09-05T18:37:50.999Z,24.28
2022-09-05T18:40:39.044Z,24.02
2022-09-05T18:43:13.316Z,24.18
2022-09-05T18:45:52.419Z,24.15
2022-09-05T18:48:29.836Z,24.06
2022-09-05T18:51:15.116Z,23.93
2022-09-05T18:53:47.459Z,23.94
2022-09-05T18:56:22.975Z,23.89
2022-09-05T18:59:01.524Z,23.84
2022-09-05T19:01:43.510Z,23.47
2022-09-05T19:04:17.598Z,23.64
2022-09-05T19:07:09.189Z,23.63
2022-09-05T19:09:37.995Z,23.23
2022-09-05T19:12:33.356Z,23.30
2022-09-05T19:14:56.342Z,23.46
2022-09-05T19:17:32.671Z,23.48
2022-09-05T19:20:31.934Z,23.34
2022-09-05T19:23:09.970Z,23.09
2022-09-05T19:25:41.684Z,22.98
2022-09-05T19:36:44.052Z,23.11
2022-09-05T19:36:50.762Z,23.12
2022-09-05T19:36:54.776Z,22.94
2022-09-05T19:37:13.586Z,22.86
2022-09-05T19:43:01.194Z,22.72
2022-09-05T19:47:34.959Z,22.88
2022-09-05T19:47:42.609Z,22.89
2022-09-05T19:48:07.594Z,22.68
2022-09-05T19:50:37.354Z,22.71
2022-09-05T19:53:07.004Z,22.80
2022-09-05T19:55:36.779Z,22.86
2022-09-05T19:58:19.715Z,22.51
2022-09-05T20:01:00.426Z,22.62
2022-09-05T20:03:38.335Z,22.56
2022-09-05T20:06:15.538Z,22.25
2022-09-05T20:09:09.241Z,22.69
2022-09-05T20:11:45.273Z,22.47
2022-09-05T20:14:23.050Z,22.18
2022-09-05T20:16:52.422Z,22.01
2022-09-05T20:19:28.522Z,22.08
2022-09-05T20:21:59.766Z,21.88
2022-09-05T20:24:47.786Z,22.00
2022-09-05T20:27:17.003Z,22.36
2022-09-05T20:29:55.567Z,22.25
2022-09-05T20:32:39.291Z,22.13
2022-09-05T20:36:40.154Z,22.32
2022-09-05T20:43:15.894Z,22.14
2022-09-05T20:43:19.941Z,22.22
2022-09-05T20:43:57.573Z,22.21
2022-09-05T20:51:29.510Z,22.25
2022-09-05T20:54:04.876Z,22.14
2022-09-05T20:54:19.064Z,22.03
2022-09-05T20:55:09.278Z,22.03
2022-09-05T20:57:47.917Z,21.59
2022-09-05T21:00:17.736Z,21.81
2022-09-05T21:02:55.824Z,21.72
2022-09-05T21:05:29.782Z,21.96
2022-09-05T21:08:23.189Z,21.69
2022-09-05T21:10:55.890Z,21.61
2022-09-05T21:13:27.299Z,21.58
2022-09-05T21:15:55.512Z,21.45
2022-09-05T21:18:28.640Z,21.53
2022-09-05T21:21:06.880Z,21.77
2022-09-05T21:24:00.914Z,21.60
2022-09-05T21:26:47.015Z,21.52
2022-09-05T21:29:16.406Z,21.53
2022-09-05T21:31:46.218Z,21.43
2022-09-05T21:34:23.682Z,21.66
2022-09-05T21:37:03.921Z,21.70
2022-09-05T21:39:38.087Z,21.52
2022-09-05T21:42:39.133Z,21.58
2022-09-05T21:47:39.162Z,21.51
2022-09-05T21:47:53.054Z,21.45
2022-09-05T21:50:30.761Z,21.36
2022-09-05T21:53:21.496Z,21.27
2022-09-05T21:59:17.321Z,21.54
2022-09-05T21:59:18.469Z,21.42
2022-09-05T22:01:50.977Z,21.45
2022-09-05T22:04:16.674Z,21.39
2022-09-05T22:06:48.404Z,21.54
2022-09-05T22:09:17.075Z,21.52
2022-09-05T22:11:50.017Z,21.45
2022-09-05T22:14:19.383Z,21.53
2022-09-05T22:16:47.612Z,21.54
2022-09-05T22:19:17.718Z,21.40
2022-09-05T22:21:45.457Z,21.40
2022-09-05T22:24:13.723Z,21.34
2022-09-05T22:27:01.514Z,21.55
2022-09-05T22:29:34.489Z,21.32
2022-09-05T22:32:02.186Z,21.31
2022-09-05T22:34:29.860Z,21.32
2022-09-05T22:36:57.506Z,21.32
2022-09-05T22:39:36.525Z,21.42
2022-09-05T22:42:07.580Z,21.28
2022-09-05T22:44:40.613Z,21.31
2022-09-05T22:47:08.907Z,21.16
2022-09-05T22:49:37.274Z,21.25
2022-09-05T22:52:05.847Z,21.23
2022-09-05T22:54:33.512Z,21.23
2022-09-05T22:57:01.106Z,21.29
2022-09-05T22:59:28.772Z,21.17
2022-09-05T23:01:57.738Z,21.12
2022-09-05T23:04:25.727Z,21.31
2022-09-05T23:06:53.552Z,21.15
2022-09-05T23:09:21.242Z,20.93
2022-09-05T23:11:48.957Z,20.94
2022-09-05T23:14:16.585Z,20.87
2022-09-05T23:16:44.168Z,20.92
2022-09-05T23:19:13.111Z,20.76
2022-09-05T23:21:40.824Z,20.73
2022-09-05T23:24:08.515Z,20.92
2022-09-05T23:26:36.090Z,20.73
2022-09-05T23:29:03.707Z,20.79
2022-09-05T23:31:31.451Z,20.68
2022-09-05T23:33:59.103Z,20.50
2022-09-05T23:36:28.387Z,20.81
2022-09-05T23:38:56.119Z,20.62
2022-09-05T23:41:23.740Z,20.62
2022-09-05T23:43:51.330Z,20.50
2022-09-05T23:46:18.993Z,20.51
2022-09-05T23:48:46.615Z,20.42
2022-09-05T23:51:14.600Z,20.57
2022-09-05T23:53:43.710Z,20.57
2022-09-05T23:56:12.166Z,20.39
2022-09-05T23:58:39.784Z,20.53
